sensor_id;sensor_type;location;lat;lon;timestamp;pressure;altitude;pressure_sealevel;temperature;humidity
55066;BME280;40964;42.114;24.220;2023-10-13T00:00:38;98307.03;;;11.78;75.55
55066;BME280;40964;42.114;24.220;2023-10-13T00:03:06;98302.81;;;11.71;75.85
55066;BME280;40964;42.114;24.220;2023-10-13T00:05:33;98298.56;;;11.63;76.42
55066;BME280;40964;42.114;24.220;2023-10-13T00:08:00;98299.59;;;11.62;76.68
55066;BME280;40964;42.114;24.220;2023-10-13T00:10:29;98294.72;;;11.59;76.48
55066;BME280;40964;42.114;24.220;2023-10-13T00:12:55;98293.75;;;11.60;76.14
55066;BME280;40964;42.114;24.220;2023-10-13T00:15:32;98303.06;;;11.56;76.36
55066;BME280;40964;42.114;24.220;2023-10-13T00:18:05;98300.66;;;11.48;76.48
55066;BME280;40964;42.114;24.220;2023-10-13T00:20:39;98299.28;;;11.45;76.59
55066;BME280;40964;42.114;24.220;2023-10-13T00:23:04;98292.97;;;11.46;76.43
55066;BME280;40964;42.114;24.220;2023-10-13T00:25:31;98286.31;;;11.44;77.16
55066;BME280;40964;42.114;24.220;2023-10-13T00:28:05;98277.00;;;11.41;77.41
55066;BME280;40964;42.114;24.220;2023-10-13T00:30:33;98278.22;;;11.38;77.54
55066;BME280;40964;42.114;24.220;2023-10-13T00:32:59;98278.81;;;11.41;77.78
55066;BME280;40964;42.114;24.220;2023-10-13T00:35:29;98271.78;;;11.34;77.25
55066;BME280;40964;42.114;24.220;2023-10-13T00:38:02;98275.44;;;11.33;77.38
55066;BME280;40964;42.114;24.220;2023-10-13T00:40:44;98258.41;;;11.29;77.72
55066;BME280;40964;42.114;24.220;2023-10-13T00:43:16;98272.00;;;11.33;77.59
55066;BME280;40964;42.114;24.220;2023-10-13T00:45:47;98276.69;;;11.24;77.72
55066;BME280;40964;42.114;24.220;2023-10-13T00:48:33;98275.72;;;11.05;78.28
55066;BME280;40964;42.114;24.220;2023-10-13T00:51:01;98278.38;;;11.05;78.16
55066;BME280;40964;42.114;24.220;2023-10-13T00:53:32;98270.66;;;11.04;78.55
55066;BME280;40964;42.114;24.220;2023-10-13T00:56:01;98257.91;;;11.01;78.09
55066;BME280;40964;42.114;24.220;2023-10-13T00:58:33;98266.84;;;11.00;79.10
55066;BME280;40964;42.114;24.220;2023-10-13T01:01:01;98275.75;;;10.99;79.64
55066;BME280;40964;42.114;24.220;2023-10-13T01:03:44;98266.25;;;10.98;79.81
55066;BME280;40964;42.114;24.220;2023-10-13T01:06:11;98265.59;;;11.02;79.59
55066;BME280;40964;42.114;24.220;2023-10-13T01:08:37;98260.56;;;11.01;80.26
55066;BME280;40964;42.114;24.220;2023-10-13T01:11:09;98259.09;;;11.05;80.17
55066;BME280;40964;42.114;24.220;2023-10-13T01:13:36;98256.31;;;11.00;80.17
55066;BME280;40964;42.114;24.220;2023-10-13T01:16:03;98248.84;;;10.97;79.36
55066;BME280;40964;42.114;24.220;2023-10-13T01:18:29;98248.19;;;11.01;80.07
55066;BME280;40964;42.114;24.220;2023-10-13T01:20:55;98249.22;;;11.00;80.09
55066;BME280;40964;42.114;24.220;2023-10-13T01:23:27;98243.34;;;10.98;79.94
55066;BME280;40964;42.114;24.220;2023-10-13T01:25:54;98254.91;;;10.97;80.32
55066;BME280;40964;42.114;24.220;2023-10-13T01:28:22;98253.31;;;10.90;80.26
55066;BME280;40964;42.114;24.220;2023-10-13T01:30:49;98253.28;;;10.96;80.12
55066;BME280;40964;42.114;24.220;2023-10-13T01:33:18;98256.09;;;11.01;80.04
55066;BME280;40964;42.114;24.220;2023-10-13T01:35:57;98251.66;;;10.95;80.46
55066;BME280;40964;42.114;24.220;2023-10-13T01:38:23;98255.09;;;10.96;80.69
55066;BME280;40964;42.114;24.220;2023-10-13T01:40:53;98246.44;;;10.89;80.35
55066;BME280;40964;42.114;24.220;2023-10-13T01:43:21;98251.47;;;10.90;80.35
55066;BME280;40964;42.114;24.220;2023-10-13T01:45:48;98250.66;;;10.90;80.19
55066;BME280;40964;42.114;24.220;2023-10-13T01:48:15;98237.09;;;10.86;80.33
55066;BME280;40964;42.114;24.220;2023-10-13T01:50:41;98246.38;;;10.95;80.52
55066;BME280;40964;42.114;24.220;2023-10-13T01:53:07;98253.28;;;10.96;80.06
55066;BME280;40964;42.114;24.220;2023-10-13T01:55:40;98235.47;;;10.98;80.49
55066;BME280;40964;42.114;24.220;2023-10-13T01:58:12;98246.00;;;10.98;80.05
55066;BME280;40964;42.114;24.220;2023-10-13T02:00:45;98245.41;;;10.96;80.40
55066;BME280;40964;42.114;24.220;2023-10-13T02:03:13;98254.31;;;10.89;80.71
55066;BME280;40964;42.114;24.220;2023-10-13T02:05:49;98254.75;;;10.79;80.88
55066;BME280;40964;42.114;24.220;2023-10-13T02:08:19;98246.44;;;10.75;80.90
55066;BME280;40964;42.114;24.220;2023-10-13T02:10:51;98250.72;;;10.70;80.85
55066;BME280;40964;42.114;24.220;2023-10-13T02:13:18;98253.75;;;10.67;81.08
55066;BME280;40964;42.114;24.220;2023-10-13T02:15:47;98241.00;;;10.64;81.52
55066;BME280;40964;42.114;24.220;2023-10-13T02:18:19;98251.53;;;10.70;81.99
55066;BME280;40964;42.114;24.220;2023-10-13T02:20:55;98261.63;;;10.80;81.54
55066;BME280;40964;42.114;24.220;2023-10-13T02:23:24;98260.81;;;10.79;81.78
55066;BME280;40964;42.114;24.220;2023-10-13T02:25:54;98264.44;;;10.85;81.36
55066;BME280;40964;42.114;24.220;2023-10-13T02:28:29;98264.63;;;10.84;80.69
55066;BME280;40964;42.114;24.220;2023-10-13T02:31:04;98268.88;;;10.85;80.08
55066;BME280;40964;42.114;24.220;2023-10-13T02:33:32;98270.31;;;10.80;79.97
55066;BME280;40964;42.114;24.220;2023-10-13T02:36:02;98266.09;;;10.79;80.32
55066;BME280;40964;42.114;24.220;2023-10-13T02:38:32;98259.59;;;10.75;80.67
55066;BME280;40964;42.114;24.220;2023-10-13T02:41:04;98257.78;;;10.76;81.03
55066;BME280;40964;42.114;24.220;2023-10-13T02:43:35;98251.72;;;10.75;80.78
55066;BME280;40964;42.114;24.220;2023-10-13T02:46:03;98254.75;;;10.72;81.70
55066;BME280;40964;42.114;24.220;2023-10-13T02:48:29;98243.44;;;10.72;81.84
55066;BME280;40964;42.114;24.220;2023-10-13T02:51:12;98244.25;;;10.72;81.83
55066;BME280;40964;42.114;24.220;2023-10-13T02:53:47;98244.63;;;10.76;82.11
55066;BME280;40964;42.114;24.220;2023-10-13T02:56:18;98245.84;;;10.73;82.27
55066;BME280;40964;42.114;24.220;2023-10-13T02:58:51;98242.63;;;10.65;81.49
55066;BME280;40964;42.114;24.220;2023-10-13T03:01:22;98234.94;;;10.63;81.26
55066;BME280;40964;42.114;24.220;2023-10-13T03:03:54;98251.91;;;10.67;81.87
55066;BME280;40964;42.114;24.220;2023-10-13T03:06:22;98251.72;;;10.69;82.03
55066;BME280;40964;42.114;24.220;2023-10-13T03:08:58;98243.22;;;10.60;82.20
55066;BME280;40964;42.114;24.220;2023-10-13T03:11:39;98247.91;;;10.58;83.08
55066;BME280;40964;42.114;24.220;2023-10-13T03:14:08;98251.53;;;10.64;84.04
55066;BME280;40964;42.114;24.220;2023-10-13T03:16:33;98246.66;;;10.67;84.03
55066;BME280;40964;42.114;24.220;2023-10-13T03:19:00;98237.38;;;10.71;83.42
55066;BME280;40964;42.114;24.220;2023-10-13T03:21:25;98237.13;;;10.79;82.92
55066;BME280;40964;42.114;24.220;2023-10-13T03:23:56;98229.41;;;10.85;83.50
55066;BME280;40964;42.114;24.220;2023-10-13T03:26:22;98233.66;;;10.92;83.28
55066;BME280;40964;42.114;24.220;2023-10-13T03:28:47;98219.47;;;11.00;82.55
55066;BME280;40964;42.114;24.220;2023-10-13T03:31:20;98212.97;;;11.02;81.81
55066;BME280;40964;42.114;24.220;2023-10-13T03:33:52;98212.97;;;11.02;81.13
55066;BME280;40964;42.114;24.220;2023-10-13T03:36:22;98212.97;;;11.02;81.05
55066;BME280;40964;42.114;24.220;2023-10-13T03:39:05;98214.34;;;11.05;81.16
55066;BME280;40964;42.114;24.220;2023-10-13T03:41:32;98206.06;;;11.08;81.32
55066;BME280;40964;42.114;24.220;2023-10-13T03:44:02;98209.47;;;11.15;81.43
55066;BME280;40964;42.114;24.220;2023-10-13T03:46:38;98205.81;;;11.16;81.47
55066;BME280;40964;42.114;24.220;2023-10-13T03:49:07;98209.66;;;11.20;81.27
55066;BME280;40964;42.114;24.220;2023-10-13T03:51:39;98209.44;;;11.22;81.12
55066;BME280;40964;42.114;24.220;2023-10-13T03:54:04;98201.53;;;11.22;80.78
55066;BME280;40964;42.114;24.220;2023-10-13T03:56:32;98197.03;;;11.29;80.28
55066;BME280;40964;42.114;24.220;2023-10-13T03:59:04;98212.41;;;11.32;79.97
55066;BME280;40964;42.114;24.220;2023-10-13T04:01:44;98209.38;;;11.35;79.59
55066;BME280;40964;42.114;24.220;2023-10-13T04:04:14;98213.19;;;11.39;79.67
55066;BME280;40964;42.114;24.220;2023-10-13T04:07:03;98215.59;;;11.41;79.51
55066;BME280;40964;42.114;24.220;2023-10-13T04:09:38;98218.31;;;11.34;79.92
55066;BME280;40964;42.114;24.220;2023-10-13T04:12:12;98222.75;;;11.33;79.55
55066;BME280;40964;42.114;24.220;2023-10-13T04:14:44;98228.19;;;11.38;79.73
55066;BME280;40964;42.114;24.220;2023-10-13T04:17:28;98233.84;;;11.42;79.74
55066;BME280;40964;42.114;24.220;2023-10-13T04:19:58;98238.69;;;11.45;79.35
55066;BME280;40964;42.114;24.220;2023-10-13T04:22:37;98243.97;;;11.45;78.92
55066;BME280;40964;42.114;24.220;2023-10-13T04:25:13;98246.00;;;11.43;78.58
55066;BME280;40964;42.114;24.220;2023-10-13T04:28:03;98249.25;;;11.38;79.04
55066;BME280;40964;42.114;24.220;2023-10-13T04:30:51;98239.97;;;11.29;78.68
55066;BME280;40964;42.114;24.220;2023-10-13T04:33:30;98252.13;;;11.30;78.69
55066;BME280;40964;42.114;24.220;2023-10-13T04:36:14;98245.25;;;11.29;79.69
55066;BME280;40964;42.114;24.220;2023-10-13T04:38:51;98246.47;;;11.33;79.66
55066;BME280;40964;42.114;24.220;2023-10-13T04:41:27;98235.94;;;11.33;79.19
55066;BME280;40964;42.114;24.220;2023-10-13T04:44:24;98232.28;;;11.34;79.86
55066;BME280;40964;42.114;24.220;2023-10-13T04:46:57;98225.97;;;11.35;80.08
55066;BME280;40964;42.114;24.220;2023-10-13T04:49:30;98218.06;;;11.42;80.46
55066;BME280;40964;42.114;24.220;2023-10-13T04:52:09;98205.69;;;11.43;80.09
55066;BME280;40964;42.114;24.220;2023-10-13T04:54:44;98212.94;;;11.47;79.96
55066;BME280;40964;42.114;24.220;2023-10-13T04:57:23;98208.66;;;11.53;79.70
55066;BME280;40964;42.114;24.220;2023-10-13T04:59:53;98207.44;;;11.55;80.09
55066;BME280;40964;42.114;24.220;2023-10-13T05:02:41;98202.34;;;11.60;79.31
55066;BME280;40964;42.114;24.220;2023-10-13T05:07:51;98195.41;;;11.66;79.61
55066;BME280;40964;42.114;24.220;2023-10-13T05:10:36;98192.34;;;11.69;79.24
55066;BME280;40964;42.114;24.220;2023-10-13T05:13:20;98189.88;;;11.74;80.17
55066;BME280;40964;42.114;24.220;2023-10-13T05:16:05;98183.81;;;11.74;80.64
55066;BME280;40964;42.114;24.220;2023-10-13T05:18:49;98193.03;;;11.89;79.95
55066;BME280;40964;42.114;24.220;2023-10-13T05:21:33;98206.72;;;12.05;80.19
55066;BME280;40964;42.114;24.220;2023-10-13T05:24:17;98212.56;;;12.07;79.87
55066;BME280;40964;42.114;24.220;2023-10-13T05:27:01;98213.47;;;12.19;78.28
55066;BME280;40964;42.114;24.220;2023-10-13T05:29:46;98217.91;;;12.25;78.24
55066;BME280;40964;42.114;24.220;2023-10-13T05:32:31;98222.69;;;12.35;78.02
55066;BME280;40964;42.114;24.220;2023-10-13T05:35:15;98230.25;;;12.49;78.21
55066;BME280;40964;42.114;24.220;2023-10-13T05:38:00;98216.69;;;12.21;78.98
55066;BME280;40964;42.114;24.220;2023-10-13T05:40:59;98230.06;;;12.26;78.80
55066;BME280;40964;42.114;24.220;2023-10-13T05:43:44;98249.94;;;12.22;79.63
55066;BME280;40964;42.114;24.220;2023-10-13T05:46:30;98261.13;;;12.24;79.68
55066;BME280;40964;42.114;24.220;2023-10-13T05:49:14;98256.66;;;12.25;79.34
55066;BME280;40964;42.114;24.220;2023-10-13T05:51:44;98258.78;;;12.34;78.68
55066;BME280;40964;42.114;24.220;2023-10-13T05:54:28;98262.78;;;12.43;77.79
55066;BME280;40964;42.114;24.220;2023-10-13T05:57:12;98264.06;;;12.59;77.93
55066;BME280;40964;42.114;24.220;2023-10-13T05:59:55;98261.06;;;12.74;76.77
55066;BME280;40964;42.114;24.220;2023-10-13T06:02:39;98266.63;;;12.84;76.52
55066;BME280;40964;42.114;24.220;2023-10-13T06:05:23;98261.00;;;12.99;76.38
55066;BME280;40964;42.114;24.220;2023-10-13T06:08:06;98254.97;;;13.10;76.90
55066;BME280;40964;42.114;24.220;2023-10-13T06:11:00;98255.59;;;13.30;76.10
55066;BME280;40964;42.114;24.220;2023-10-13T06:13:44;98253.34;;;13.46;76.07
55066;BME280;40964;42.114;24.220;2023-10-13T06:16:28;98250.09;;;13.62;76.09
55066;BME280;40964;42.114;24.220;2023-10-13T06:19:12;98257.16;;;13.80;75.50
55066;BME280;40964;42.114;24.220;2023-10-13T06:21:55;98252.84;;;13.97;74.32
55066;BME280;40964;42.114;24.220;2023-10-13T06:24:39;98264.13;;;14.16;73.34
55066;BME280;40964;42.114;24.220;2023-10-13T06:27:23;98265.31;;;14.32;71.86
55066;BME280;40964;42.114;24.220;2023-10-13T06:30:12;98268.78;;;14.44;70.20
55066;BME280;40964;42.114;24.220;2023-10-13T06:32:37;98273.53;;;14.54;69.24
55066;BME280;40964;42.114;24.220;2023-10-13T06:35:05;98259.38;;;14.60;69.31
55066;BME280;40964;42.114;24.220;2023-10-13T06:37:34;98282.16;;;14.84;67.58
55066;BME280;40964;42.114;24.220;2023-10-13T06:40:03;98281.91;;;14.97;67.41
55066;BME280;40964;42.114;24.220;2023-10-13T06:42:48;98277.63;;;15.08;67.72
55066;BME280;40964;42.114;24.220;2023-10-13T06:45:13;98262.41;;;15.15;66.55
55066;BME280;40964;42.114;24.220;2023-10-13T06:47:42;98275.63;;;15.39;66.80
55066;BME280;40964;42.114;24.220;2023-10-13T06:50:11;98276.38;;;15.51;65.40
55066;BME280;40964;42.114;24.220;2023-10-13T06:52:44;98269.78;;;15.65;65.49
55066;BME280;40964;42.114;24.220;2023-10-13T06:55:10;98266.75;;;15.73;64.86
55066;BME280;40964;42.114;24.220;2023-10-13T06:57:42;98262.19;;;15.85;63.70
55066;BME280;40964;42.114;24.220;2023-10-13T07:00:10;98263.16;;;15.96;64.70
55066;BME280;40964;42.114;24.220;2023-10-13T07:02:45;98267.19;;;15.99;65.80
55066;BME280;40964;42.114;24.220;2023-10-13T07:05:12;98269.44;;;16.07;65.53
55066;BME280;40964;42.114;24.220;2023-10-13T07:07:40;98280.06;;;16.07;65.30
55066;BME280;40964;42.114;24.220;2023-10-13T07:10:09;98286.81;;;16.14;65.68
55066;BME280;40964;42.114;24.220;2023-10-13T07:12:37;98280.16;;;16.12;63.64
55066;BME280;40964;42.114;24.220;2023-10-13T07:15:03;98268.09;;;16.21;62.62
55066;BME280;40964;42.114;24.220;2023-10-13T07:17:47;98277.13;;;16.37;62.33
55066;BME280;40964;42.114;24.220;2023-10-13T07:20:20;98280.31;;;16.56;62.47
55066;BME280;40964;42.114;24.220;2023-10-13T07:22:58;98275.03;;;16.72;60.65
55066;BME280;40964;42.114;24.220;2023-10-13T07:25:31;98276.53;;;16.85;60.42
55066;BME280;40964;42.114;24.220;2023-10-13T07:28:06;98273.53;;;16.98;59.65
55066;BME280;40964;42.114;24.220;2023-10-13T07:30:36;98238.31;;;17.08;58.97
55066;BME280;40964;42.114;24.220;2023-10-13T07:33:15;98263.19;;;17.46;58.29
55066;BME280;40964;42.114;24.220;2023-10-13T07:35:45;98264.91;;;17.57;57.82
55066;BME280;40964;42.114;24.220;2023-10-13T07:38:16;98260.88;;;17.76;58.07
55066;BME280;40964;42.114;24.220;2023-10-13T07:40:42;98253.31;;;17.90;56.95
55066;BME280;40964;42.114;24.220;2023-10-13T07:43:16;98264.13;;;18.10;54.83
55066;BME280;40964;42.114;24.220;2023-10-13T07:45:46;98257.09;;;18.26;53.97
55066;BME280;40964;42.114;24.220;2023-10-13T07:48:16;98264.97;;;18.48;53.80
55066;BME280;40964;42.114;24.220;2023-10-13T07:50:46;98263.50;;;18.67;53.11
55066;BME280;40964;42.114;24.220;2023-10-13T07:53:12;98260.41;;;18.81;52.16
55066;BME280;40964;42.114;24.220;2023-10-13T07:55:50;98254.09;;;18.97;53.00
55066;BME280;40964;42.114;24.220;2023-10-13T07:58:23;98265.13;;;19.21;53.12
55066;BME280;40964;42.114;24.220;2023-10-13T08:00:52;98257.44;;;19.29;50.46
55066;BME280;40964;42.114;24.220;2023-10-13T08:03:35;98257.00;;;19.58;54.10
55066;BME280;40964;42.114;24.220;2023-10-13T08:06:14;98243.91;;;19.51;49.36
55066;BME280;40964;42.114;24.220;2023-10-13T08:08:40;98251.72;;;19.68;51.69
55066;BME280;40964;42.114;24.220;2023-10-13T08:11:12;98243.72;;;19.83;48.58
55066;BME280;40964;42.114;24.220;2023-10-13T08:13:54;98248.28;;;19.98;49.44
55066;BME280;40964;42.114;24.220;2023-10-13T08:16:24;98236.81;;;20.13;49.37
55066;BME280;40964;42.114;24.220;2023-10-13T08:18:55;98243.75;;;20.34;49.99
55066;BME280;40964;42.114;24.220;2023-10-13T08:21:21;98235.97;;;20.38;48.27
55066;BME280;40964;42.114;24.220;2023-10-13T08:23:50;98226.66;;;20.51;47.62
55066;BME280;40964;42.114;24.220;2023-10-13T08:26:19;98230.84;;;20.82;49.10
55066;BME280;40964;42.114;24.220;2023-10-13T08:29:03;98219.84;;;21.04;47.88
55066;BME280;40964;42.114;24.220;2023-10-13T08:31:50;98232.03;;;21.20;46.07
55066;BME280;40964;42.114;24.220;2023-10-13T08:34:35;98219.94;;;21.38;45.08
55066;BME280;40964;42.114;24.220;2023-10-13T08:37:29;98214.44;;;21.64;45.76
55066;BME280;40964;42.114;24.220;2023-10-13T08:39:59;98213.84;;;21.77;45.79
55066;BME280;40964;42.114;24.220;2023-10-13T08:42:32;98214.69;;;22.12;45.13
55066;BME280;40964;42.114;24.220;2023-10-13T08:45:17;98216.47;;;22.21;45.30
55066;BME280;40964;42.114;24.220;2023-10-13T08:47:49;98206.84;;;22.49;43.69
55066;BME280;40964;42.114;24.220;2023-10-13T08:50:48;98200.00;;;22.62;42.43
55066;BME280;40964;42.114;24.220;2023-10-13T08:53:30;98214.44;;;22.90;42.90
55066;BME280;40964;42.114;24.220;2023-10-13T08:58:36;98212.59;;;23.09;41.39
55066;BME280;40964;42.114;24.220;2023-10-13T09:01:27;98209.09;;;23.33;39.95
55066;BME280;40964;42.114;24.220;2023-10-13T09:04:18;98205.28;;;23.39;40.93
55066;BME280;40964;42.114;24.220;2023-10-13T09:12:15;98202.31;;;23.78;40.34
55066;BME280;40964;42.114;24.220;2023-10-13T09:14:43;98193.91;;;23.98;38.43
55066;BME280;40964;42.114;24.220;2023-10-13T09:17:23;98200.13;;;24.13;38.11
55066;BME280;40964;42.114;24.220;2023-10-13T09:20:08;98200.75;;;24.23;37.48
55066;BME280;40964;42.114;24.220;2023-10-13T09:22:53;98211.81;;;24.22;37.98
55066;BME280;40964;42.114;24.220;2023-10-13T09:25:32;98210.13;;;24.26;37.76
55066;BME280;40964;42.114;24.220;2023-10-13T09:28:11;98209.09;;;24.41;37.24
55066;BME280;40964;42.114;24.220;2023-10-13T09:30:57;98212.69;;;24.50;36.55
55066;BME280;40964;42.114;24.220;2023-10-13T09:33:24;98208.94;;;24.65;37.92
55066;BME280;40964;42.114;24.220;2023-10-13T09:36:06;98213.81;;;24.76;36.07
55066;BME280;40964;42.114;24.220;2023-10-13T09:38:34;98212.41;;;24.79;36.54
55066;BME280;40964;42.114;24.220;2023-10-13T09:40:59;98214.72;;;24.99;36.13
55066;BME280;40964;42.114;24.220;2023-10-13T09:43:35;98218.44;;;25.17;35.53
55066;BME280;40964;42.114;24.220;2023-10-13T09:46:03;98203.72;;;25.37;35.87
55066;BME280;40964;42.114;24.220;2023-10-13T09:48:34;98218.16;;;25.55;36.68
55066;BME280;40964;42.114;24.220;2023-10-13T09:51:04;98213.88;;;25.54;34.42
55066;BME280;40964;42.114;24.220;2023-10-13T09:53:35;98203.66;;;25.64;35.42
55066;BME280;40964;42.114;24.220;2023-10-13T09:58:52;98207.78;;;25.48;34.50
55066;BME280;40964;42.114;24.220;2023-10-13T10:01:24;98209.59;;;25.53;34.88
55066;BME280;40964;42.114;24.220;2023-10-13T10:04:13;98204.44;;;25.65;34.22
55066;BME280;40964;42.114;24.220;2023-10-13T10:06:59;98202.09;;;25.86;34.98
55066;BME280;40964;42.114;24.220;2023-10-13T10:09:29;98195.81;;;25.90;35.79
55066;BME280;40964;42.114;24.220;2023-10-13T10:15:24;98186.19;;;25.98;33.13
55066;BME280;40964;42.114;24.220;2023-10-13T10:18:18;98183.84;;;26.05;34.43
55066;BME280;40964;42.114;24.220;2023-10-13T10:20:44;98170.88;;;26.07;33.39
55066;BME280;40964;42.114;24.220;2023-10-13T10:23:24;98166.78;;;26.18;33.77
55066;BME280;40964;42.114;24.220;2023-10-13T10:25:49;98159.47;;;26.41;34.04
55066;BME280;40964;42.114;24.220;2023-10-13T10:28:17;98164.25;;;26.44;32.32
55066;BME280;40964;42.114;24.220;2023-10-13T10:30:44;98165.59;;;26.64;34.20
55066;BME280;40964;42.114;24.220;2023-10-13T10:33:11;98151.53;;;26.84;34.05
55066;BME280;40964;42.114;24.220;2023-10-13T10:35:42;98151.19;;;26.77;31.75
55066;BME280;40964;42.114;24.220;2023-10-13T10:43:28;98147.50;;;26.65;33.02
55066;BME280;40964;42.114;24.220;2023-10-13T10:46:18;98141.88;;;26.92;32.36
55066;BME280;40964;42.114;24.220;2023-10-13T10:48:44;98148.59;;;27.03;31.49
55066;BME280;40964;42.114;24.220;2023-10-13T10:51:11;98147.34;;;27.27;31.15
55066;BME280;40964;42.114;24.220;2023-10-13T10:53:47;98136.22;;;27.37;31.68
55066;BME280;40964;42.114;24.220;2023-10-13T10:56:15;98145.31;;;27.41;31.84
55066;BME280;40964;42.114;24.220;2023-10-13T10:59:00;98146.38;;;27.40;31.26
55066;BME280;40964;42.114;24.220;2023-10-13T11:01:30;98145.13;;;27.55;31.35
55066;BME280;40964;42.114;24.220;2023-10-13T11:04:12;98149.63;;;27.68;30.88
55066;BME280;40964;42.114;24.220;2023-10-13T11:06:54;98127.66;;;27.78;30.45
55066;BME280;40964;42.114;24.220;2023-10-13T11:09:38;98123.81;;;27.62;30.40
55066;BME280;40964;42.114;24.220;2023-10-13T11:12:12;98125.88;;;27.65;30.31
55066;BME280;40964;42.114;24.220;2023-10-13T11:14:43;98133.84;;;27.61;30.36
55066;BME280;40964;42.114;24.220;2023-10-13T11:17:23;98131.75;;;27.58;30.16
55066;BME280;40964;42.114;24.220;2023-10-13T11:20:08;98131.16;;;27.79;30.14
55066;BME280;40964;42.114;24.220;2023-10-13T11:22:45;98113.97;;;27.83;30.56
55066;BME280;40964;42.114;24.220;2023-10-13T11:25:40;98123.31;;;27.86;30.42
55066;BME280;40964;42.114;24.220;2023-10-13T11:28:13;98106.94;;;27.99;30.52
55066;BME280;40964;42.114;24.220;2023-10-13T11:30:46;98113.25;;;28.12;30.70
55066;BME280;40964;42.114;24.220;2023-10-13T11:33:16;98115.16;;;28.12;29.85
55066;BME280;40964;42.114;24.220;2023-10-13T11:35:49;98113.44;;;28.07;29.57
55066;BME280;40964;42.114;24.220;2023-10-13T11:38:29;98104.97;;;28.17;29.64
55066;BME280;40964;42.114;24.220;2023-10-13T11:41:07;98105.31;;;28.07;28.35
55066;BME280;40964;42.114;24.220;2023-10-13T11:43:43;98102.81;;;27.85;28.96
55066;BME280;40964;42.114;24.220;2023-10-13T11:46:13;98103.19;;;27.66;28.61
55066;BME280;40964;42.114;24.220;2023-10-13T11:48:45;98105.72;;;27.71;30.18
55066;BME280;40964;42.114;24.220;2023-10-13T11:51:13;98095.88;;;27.66;29.55
55066;BME280;40964;42.114;24.220;2023-10-13T11:53:58;98099.06;;;27.68;30.22
55066;BME280;40964;42.114;24.220;2023-10-13T11:56:24;98104.25;;;27.91;29.51
55066;BME280;40964;42.114;24.220;2023-10-13T11:58:50;98098.13;;;28.11;29.25
55066;BME280;40964;42.114;24.220;2023-10-13T12:01:16;98098.94;;;28.03;28.35
55066;BME280;40964;42.114;24.220;2023-10-13T12:04:08;98094.50;;;28.07;29.10
55066;BME280;40964;42.114;24.220;2023-10-13T12:06:52;98091.78;;;28.07;29.24
55066;BME280;40964;42.114;24.220;2023-10-13T12:09:37;98095.94;;;28.05;29.38
55066;BME280;40964;42.114;24.220;2023-10-13T12:12:25;98093.53;;;28.03;28.97
55066;BME280;40964;42.114;24.220;2023-10-13T12:14:51;98081.13;;;28.11;28.91
55066;BME280;40964;42.114;24.220;2023-10-13T12:17:27;98089.66;;;28.21;29.19
55066;BME280;40964;42.114;24.220;2023-10-13T12:19:57;98093.47;;;28.20;27.69
55066;BME280;40964;42.114;24.220;2023-10-13T12:22:24;98094.56;;;27.90;27.97
55066;BME280;40964;42.114;24.220;2023-10-13T12:24:55;98081.69;;;27.87;29.06
55066;BME280;40964;42.114;24.220;2023-10-13T12:27:21;98093.56;;;27.94;27.59
55066;BME280;40964;42.114;24.220;2023-10-13T12:30:01;98094.66;;;28.02;27.18
55066;BME280;40964;42.114;24.220;2023-10-13T12:32:33;98093.19;;;28.22;27.38
55066;BME280;40964;42.114;24.220;2023-10-13T12:35:00;98096.44;;;27.98;26.90
55066;BME280;40964;42.114;24.220;2023-10-13T12:37:42;98090.88;;;27.94;26.87
55066;BME280;40964;42.114;24.220;2023-10-13T12:43:06;98084.75;;;28.23;26.47
55066;BME280;40964;42.114;24.220;2023-10-13T12:45:51;98064.81;;;27.90;25.64
55066;BME280;40964;42.114;24.220;2023-10-13T12:48:36;98090.16;;;28.23;25.91
55066;BME280;40964;42.114;24.220;2023-10-13T12:51:21;98083.47;;;28.21;26.16
55066;BME280;40964;42.114;24.220;2023-10-13T12:53:56;98087.44;;;28.23;26.38
55066;BME280;40964;42.114;24.220;2023-10-13T12:56:31;98085.84;;;28.22;27.81
55066;BME280;40964;42.114;24.220;2023-10-13T12:58:56;98082.50;;;28.25;28.48
55066;BME280;40964;42.114;24.220;2023-10-13T13:01:25;98089.44;;;28.44;27.31
55066;BME280;40964;42.114;24.220;2023-10-13T13:03:58;98090.38;;;28.48;25.61
55066;BME280;40964;42.114;24.220;2023-10-13T13:06:25;98091.41;;;28.26;25.60
55066;BME280;40964;42.114;24.220;2023-10-13T13:09:00;98092.16;;;28.44;25.40
55066;BME280;40964;42.114;24.220;2023-10-13T13:11:26;98084.19;;;28.39;24.90
55066;BME280;40964;42.114;24.220;2023-10-13T13:13:55;98089.28;;;28.49;25.21
55066;BME280;40964;42.114;24.220;2023-10-13T13:16:20;98083.28;;;28.35;25.26
55066;BME280;40964;42.114;24.220;2023-10-13T13:18:52;98086.44;;;28.37;24.43
55066;BME280;40964;42.114;24.220;2023-10-13T13:21:20;98077.38;;;28.41;25.64
55066;BME280;40964;42.114;24.220;2023-10-13T13:23:51;98075.63;;;28.28;24.27
55066;BME280;40964;42.114;24.220;2023-10-13T13:26:20;98080.00;;;28.12;25.60
55066;BME280;40964;42.114;24.220;2023-10-13T13:28:48;98082.63;;;27.91;25.36
55066;BME280;40964;42.114;24.220;2023-10-13T13:31:18;98083.63;;;27.78;25.81
55066;BME280;40964;42.114;24.220;2023-10-13T13:33:43;98093.66;;;27.68;25.35
55066;BME280;40964;42.114;24.220;2023-10-13T13:36:12;98083.78;;;27.73;25.39
55066;BME280;40964;42.114;24.220;2023-10-13T13:38:44;98083.78;;;27.73;25.51
55066;BME280;40964;42.114;24.220;2023-10-13T13:41:20;98081.84;;;27.64;25.75
55066;BME280;40964;42.114;24.220;2023-10-13T13:43:49;98082.81;;;27.60;25.56
55066;BME280;40964;42.114;24.220;2023-10-13T13:46:22;98086.13;;;27.65;25.53
55066;BME280;40964;42.114;24.220;2023-10-13T13:48:53;98079.97;;;27.48;24.90
55066;BME280;40964;42.114;24.220;2023-10-13T13:51:25;98067.13;;;27.27;25.27